createdAt,value
2019-02-16T00:03:12.189Z,6.43
2019-02-16T00:07:20.311Z,6.17
2019-02-16T00:11:28.440Z,6.67
2019-02-16T00:15:36.553Z,5.43
2019-02-16T00:19:44.679Z,6.17
2019-02-16T00:23:52.830Z,5.60
2019-02-16T00:28:01.009Z,5.47
2019-02-16T00:32:09.139Z,5.73
2019-02-16T00:36:17.297Z,5.20
2019-02-16T00:40:25.428Z,5.47
2019-02-16T00:44:33.639Z,5.80
2019-02-16T00:48:41.822Z,5.80
2019-02-16T00:52:49.985Z,5.57
2019-02-16T00:56:58.122Z,6.30
2019-02-16T01:01:06.333Z,16.77
2019-02-16T01:05:14.517Z,43.50
2019-02-16T01:09:22.692Z,32.17
2019-02-16T01:13:31.025Z,15.00
2019-02-16T01:17:39.145Z,8.63
2019-02-16T01:21:47.326Z,10.20
2019-02-16T01:25:55.459Z,5.83
2019-02-16T01:30:03.591Z,5.77
2019-02-16T01:34:11.742Z,4.90
2019-02-16T01:38:19.892Z,4.80
2019-02-16T01:42:28.054Z,4.67
2019-02-16T01:46:36.189Z,5.30
2019-02-16T01:50:44.301Z,4.60
2019-02-16T01:54:52.422Z,4.70
2019-02-16T01:59:00.533Z,5.33
2019-02-16T02:03:08.669Z,5.10
2019-02-16T02:07:16.788Z,5.47
2019-02-16T02:11:24.928Z,5.30
2019-02-16T02:15:33.037Z,5.27
2019-02-16T02:19:41.177Z,5.00
2019-02-16T02:23:49.301Z,5.80
2019-02-16T02:27:57.470Z,5.00
2019-02-16T02:32:05.596Z,5.90
2019-02-16T02:36:13.738Z,6.70
2019-02-16T02:40:21.880Z,5.63
2019-02-16T02:44:30.190Z,5.50
2019-02-16T02:48:38.365Z,5.67
2019-02-16T02:52:47.502Z,6.10
2019-02-16T02:56:55.622Z,5.60
2019-02-16T03:01:03.750Z,5.07
2019-02-16T03:05:12.005Z,5.10
2019-02-16T03:09:20.186Z,5.00
2019-02-16T03:13:28.323Z,4.87
2019-02-16T03:17:36.454Z,5.03
2019-02-16T03:21:44.588Z,5.30
2019-02-16T03:26:02.937Z,5.40
2019-02-16T03:31:21.758Z,5.80
2019-02-16T03:37:52.506Z,5.40
2019-02-16T03:42:00.634Z,5.40
2019-02-16T03:46:08.767Z,5.50
2019-02-16T03:50:16.919Z,5.00
2019-02-16T03:54:25.054Z,4.83
2019-02-16T03:58:33.237Z,4.90
2019-02-16T04:02:41.367Z,5.20
2019-02-16T04:06:49.489Z,6.10
2019-02-16T04:10:57.613Z,6.80
2019-02-16T04:15:05.834Z,5.70
2019-02-16T04:19:13.957Z,5.70
2019-02-16T04:23:22.131Z,5.77
2019-02-16T04:27:30.254Z,5.20
2019-02-16T04:31:38.384Z,5.70
2019-02-16T04:35:46.527Z,5.10
2019-02-16T04:39:54.653Z,5.57
2019-02-16T04:44:02.794Z,5.47
2019-02-16T04:48:10.948Z,4.70
2019-02-16T04:52:19.073Z,5.20
2019-02-16T04:56:27.200Z,6.03
2019-02-16T05:00:35.342Z,5.97
2019-02-16T05:04:43.458Z,5.13
2019-02-16T05:08:51.638Z,5.60
2019-02-16T05:12:59.766Z,5.47
2019-02-16T05:17:07.898Z,4.83
2019-02-16T05:21:16.032Z,5.43
2019-02-16T05:25:24.153Z,4.43
2019-02-16T05:29:32.315Z,4.63
2019-02-16T05:33:40.545Z,5.20
2019-02-16T05:37:48.677Z,6.07
2019-02-16T05:41:56.798Z,6.00
2019-02-16T05:46:04.942Z,5.33
2019-02-16T05:50:13.085Z,6.67
2019-02-16T05:54:21.237Z,6.23
2019-02-16T05:58:29.394Z,5.83
2019-02-16T06:02:37.516Z,8.00
2019-02-16T06:06:45.642Z,9.67
2019-02-16T06:10:53.765Z,6.50
2019-02-16T06:15:01.926Z,6.47
2019-02-16T06:19:10.097Z,6.67
2019-02-16T06:23:18.229Z,6.10
2019-02-16T06:27:26.378Z,5.53
2019-02-16T06:31:34.507Z,5.43
2019-02-16T06:35:45.871Z,6.40
2019-02-16T06:39:53.999Z,5.83
2019-02-16T06:44:02.122Z,6.10
2019-02-16T06:48:10.261Z,6.50
2019-02-16T06:52:18.425Z,6.33
2019-02-16T06:56:30.044Z,5.73
2019-02-16T07:00:38.165Z,5.50
2019-02-16T07:04:46.318Z,6.53
2019-02-16T07:08:54.455Z,10.00
2019-02-16T07:13:02.585Z,9.70
2019-02-16T07:17:24.038Z,9.60
2019-02-16T07:21:32.189Z,11.87
2019-02-16T07:25:40.354Z,10.30
2019-02-16T07:29:48.501Z,10.40
2019-02-16T07:33:56.634Z,10.37
2019-02-16T07:38:04.769Z,10.17
2019-02-16T07:42:12.938Z,9.60
2019-02-16T07:46:33.221Z,11.43
2019-02-16T07:50:48.789Z,11.20
2019-02-16T07:55:01.545Z,10.20
2019-02-16T07:59:17.958Z,9.40
2019-02-16T08:03:30.331Z,9.47
2019-02-16T08:08:41.542Z,10.47
2019-02-16T08:12:54.953Z,11.87
2019-02-16T08:17:10.097Z,11.57
2019-02-16T08:21:25.495Z,10.67
2019-02-16T08:25:43.981Z,10.07
2019-02-16T08:29:57.373Z,10.60
2019-02-16T08:35:10.588Z,11.43
2019-02-16T08:39:58.413Z,15.23
2019-02-16T08:44:10.922Z,12.87
2019-02-16T08:48:39.449Z,15.27
2019-02-16T08:54:55.579Z,15.83
2019-02-16T08:59:07.955Z,14.80
2019-02-16T09:03:27.272Z,13.23
2019-02-16T09:07:40.894Z,13.00
2019-02-16T09:12:24.552Z,11.87
2019-02-16T09:16:38.527Z,12.77
2019-02-16T09:21:14.511Z,13.20
2019-02-16T09:25:24.758Z,15.47
2019-02-16T09:29:38.997Z,19.67
2019-02-16T09:33:52.142Z,27.20
2019-02-16T09:38:07.533Z,27.03
2019-02-16T09:42:24.905Z,30.10
2019-02-16T09:46:41.217Z,22.10
2019-02-16T09:50:54.614Z,18.20
2019-02-16T09:57:10.704Z,9.40
2019-02-16T10:01:25.126Z,7.90
2019-02-16T10:05:37.503Z,13.77
2019-02-16T10:09:51.505Z,9.90
2019-02-16T10:14:19.322Z,6.47
2019-02-16T10:18:41.743Z,7.47
2019-02-16T10:22:55.041Z,7.17
2019-02-16T10:27:10.312Z,6.83
2019-02-16T10:31:23.787Z,6.83
2019-02-16T10:35:41.909Z,7.70
2019-02-16T10:39:55.533Z,8.10
2019-02-16T10:44:08.910Z,7.93
2019-02-16T10:48:21.275Z,8.13
2019-02-16T10:52:49.788Z,9.03
2019-02-16T10:57:03.551Z,7.70
2019-02-16T11:01:15.917Z,8.30
2019-02-16T11:05:29.371Z,8.50
2019-02-16T11:09:47.921Z,9.77
2019-02-16T11:14:01.294Z,8.60
2019-02-16T11:18:14.957Z,9.00
2019-02-16T11:22:28.681Z,9.53
2019-02-16T11:26:42.172Z,9.60
2019-02-16T11:33:01.369Z,8.80
2019-02-16T11:37:15.799Z,10.37
2019-02-16T11:41:32.086Z,13.63
2019-02-16T11:46:00.693Z,12.30
2019-02-16T11:50:19.133Z,10.40
2019-02-16T11:54:32.861Z,10.37
2019-02-16T11:58:46.485Z,9.07
2019-02-16T12:02:59.031Z,11.47
2019-02-16T12:07:14.694Z,33.90
2019-02-16T12:13:32.954Z,12.03
2019-02-16T12:19:51.859Z,16.30
2019-02-16T12:24:06.598Z,8.80
2019-02-16T12:28:24.955Z,9.73
2019-02-16T12:32:43.590Z,8.10
2019-02-16T12:37:04.247Z,18.70
2019-02-16T12:41:28.011Z,14.73
2019-02-16T12:45:50.949Z,8.70
2019-02-16T12:52:01.367Z,8.43
2019-02-16T12:57:12.464Z,8.50
2019-02-16T13:03:30.314Z,8.13
2019-02-16T13:07:47.818Z,9.23
2019-02-16T13:12:00.425Z,8.47
2019-02-16T13:16:12.907Z,8.40
2019-02-16T13:20:26.454Z,12.50
2019-02-16T13:24:40.971Z,7.40
2019-02-16T13:28:59.629Z,8.20
2019-02-16T13:33:13.019Z,8.53
2019-02-16T13:37:26.650Z,8.67
2019-02-16T13:41:43.472Z,11.67
2019-02-16T13:45:57.890Z,19.37
2019-02-16T13:50:11.421Z,13.80
2019-02-16T13:54:23.853Z,9.27
2019-02-16T13:58:43.511Z,13.57
2019-02-16T14:02:59.162Z,8.73
2019-02-16T14:07:11.685Z,12.20
2019-02-16T14:11:25.191Z,15.13
2019-02-16T14:17:42.387Z,16.30
2019-02-16T14:21:50.632Z,36.47
2019-02-16T14:25:59.313Z,15.80
2019-02-16T14:30:08.980Z,9.40
2019-02-16T14:34:17.181Z,11.50
2019-02-16T14:38:33.593Z,8.90
2019-02-16T14:42:41.819Z,10.80
2019-02-16T14:46:50.007Z,9.80
2019-02-16T14:50:58.948Z,11.23
2019-02-16T14:55:09.891Z,10.20
2019-02-16T14:59:18.155Z,10.37
2019-02-16T15:03:26.735Z,12.70
2019-02-16T15:07:35.361Z,16.10
2019-02-16T15:11:43.551Z,12.07
2019-02-16T15:15:51.774Z,12.83
2019-02-16T15:20:00.532Z,13.73
2019-02-16T15:24:08.923Z,10.50
2019-02-16T15:28:17.125Z,10.63
2019-02-16T15:32:25.428Z,9.03
2019-02-16T15:36:34.170Z,9.70
2019-02-16T15:40:42.371Z,9.87
2019-02-16T15:44:50.593Z,9.73
2019-02-16T15:48:59.457Z,8.60
2019-02-16T15:53:07.683Z,8.77
2019-02-16T15:57:15.857Z,9.00
2019-02-16T16:01:24.104Z,9.50
2019-02-16T16:05:32.773Z,7.90
2019-02-16T16:09:52.284Z,9.00
2019-02-16T16:14:10.100Z,9.20
2019-02-16T16:18:22.555Z,18.50
2019-02-16T16:22:36.300Z,10.70
2019-02-16T16:26:49.609Z,11.60
2019-02-16T16:31:06.443Z,14.20
2019-02-16T16:35:21.709Z,21.30
2019-02-16T16:39:34.999Z,20.30
2019-02-16T16:43:48.313Z,17.30
2019-02-16T16:48:03.001Z,17.27
2019-02-16T16:54:19.159Z,16.97
2019-02-16T16:59:32.904Z,16.20
2019-02-16T17:03:49.339Z,15.00
2019-02-16T17:08:03.544Z,15.27
2019-02-16T17:12:23.013Z,15.40
2019-02-16T17:16:35.695Z,13.90
2019-02-16T17:20:49.457Z,13.73
2019-02-16T17:25:06.991Z,12.97
2019-02-16T17:29:20.564Z,13.53
2019-02-16T17:33:34.272Z,15.23
2019-02-16T17:37:48.610Z,16.67
2019-02-16T17:42:02.185Z,14.40
2019-02-16T17:46:14.631Z,15.73
2019-02-16T17:50:57.640Z,15.70
2019-02-16T17:55:15.130Z,14.83
2019-02-16T17:59:27.966Z,12.00
2019-02-16T18:04:38.998Z,12.70
2019-02-16T18:08:57.493Z,13.70
2019-02-16T18:13:10.909Z,18.40
2019-02-16T18:17:28.312Z,19.20
2019-02-16T18:21:46.457Z,11.67
2019-02-16T18:26:01.057Z,17.40
2019-02-16T18:30:15.441Z,19.10
2019-02-16T18:34:29.142Z,18.00
2019-02-16T18:38:42.519Z,18.77
2019-02-16T18:42:56.148Z,19.17
2019-02-16T18:47:10.546Z,18.17
2019-02-16T18:51:43.141Z,20.70
2019-02-16T18:56:05.650Z,20.00
2019-02-16T19:00:25.112Z,19.47
2019-02-16T19:05:37.721Z,18.17
2019-02-16T19:09:52.748Z,18.90
2019-02-16T19:14:09.077Z,25.40
2019-02-16T19:18:55.789Z,27.00
2019-02-16T19:23:11.266Z,22.90
2019-02-16T19:27:27.663Z,20.33
2019-02-16T19:31:40.067Z,19.87
2019-02-16T19:35:52.469Z,16.70
2019-02-16T19:40:07.750Z,18.10
2019-02-16T19:44:22.905Z,15.70
2019-02-16T19:48:38.290Z,15.20
2019-02-16T19:52:51.886Z,15.53
2019-02-16T19:57:13.146Z,14.47
2019-02-16T20:01:25.555Z,14.43
2019-02-16T20:07:45.363Z,14.77
2019-02-16T20:11:59.033Z,14.70
2019-02-16T20:16:13.309Z,16.67
2019-02-16T20:20:27.722Z,16.13
2019-02-16T20:24:40.098Z,18.50
2019-02-16T20:28:53.274Z,16.90
2019-02-16T20:33:05.659Z,16.83
2019-02-16T20:37:21.346Z,13.13
2019-02-16T20:41:35.135Z,16.77
2019-02-16T20:45:49.411Z,17.40
2019-02-16T20:50:17.865Z,19.87
2019-02-16T20:54:32.295Z,23.83
2019-02-16T20:58:45.438Z,21.20
2019-02-16T21:02:59.062Z,18.80
2019-02-16T21:07:15.462Z,21.53
2019-02-16T21:11:29.271Z,17.77
2019-02-16T21:15:43.769Z,16.03
2019-02-16T21:19:57.436Z,16.90
2019-02-16T21:26:14.084Z,15.40
2019-02-16T21:30:26.489Z,14.80
2019-02-16T21:34:40.266Z,13.60
2019-02-16T21:39:03.229Z,13.87
2019-02-16T21:43:12.086Z,12.60
2019-02-16T21:47:29.467Z,13.33
2019-02-16T21:51:45.771Z,13.60
2019-02-16T21:56:02.110Z,14.50
2019-02-16T22:00:14.532Z,14.30
2019-02-16T22:04:26.912Z,14.60
2019-02-16T22:08:42.309Z,14.60
2019-02-16T22:12:58.765Z,14.43
2019-02-16T22:17:06.924Z,18.73
2019-02-16T22:21:15.089Z,16.47
2019-02-16T22:25:23.310Z,16.17
2019-02-16T22:29:31.525Z,14.93
2019-02-16T22:33:39.693Z,19.07
2019-02-16T22:37:47.960Z,35.07
2019-02-16T22:41:56.102Z,40.07
2019-02-16T22:46:04.266Z,23.70
2019-02-16T22:50:12.672Z,18.17
2019-02-16T22:54:20.843Z,21.27
2019-02-16T22:58:29.376Z,17.60
2019-02-16T23:02:37.253Z,14.87
2019-02-16T23:06:45.397Z,14.93
2019-02-16T23:10:53.553Z,15.60
2019-02-16T23:15:01.729Z,15.33
2019-02-16T23:19:09.921Z,14.67
2019-02-16T23:23:18.077Z,16.00
2019-02-16T23:27:26.237Z,14.30
2019-02-16T23:31:34.462Z,15.80
2019-02-16T23:35:42.630Z,15.83
2019-02-16T23:39:50.785Z,15.87
2019-02-16T23:43:58.937Z,16.00
2019-02-16T23:48:07.089Z,13.93
2019-02-16T23:52:15.297Z,14.37
2019-02-16T23:56:23.410Z,15.03
